Time;durP1;ratioP1;P1;durP2;ratioP2;P2;SDS_P1;SDS_P2;PMS_P1;PMS_P2;Temp;Humidity;BMP_temperature;BMP_pressure;BME280_temperature;BME280_humidity;BME280_pressure;Samples;Min_cycle;Max_cycle;Signal;HPM_P1;HPM_P2
2022/06/06 00:00:09;;;;;;;6.63;3.40;;;15.80;99.90;;;;;;6190162;22;20016;-93
2022/06/06 00:02:36;;;;;;;6.28;3.47;;;15.80;99.90;;;;;;6215189;23;20056;-93
2022/06/06 00:05:02;;;;;;;6.38;3.40;;;15.80;99.90;;;;;;6190398;22;20020;-92
2022/06/06 00:07:28;;;;;;;;;;;15.80;99.90;;;;;;6215853;23;20048;-90
2022/06/06 00:09:53;;;;;;;6.18;3.00;;;15.90;99.90;;;;;;6190323;22;20388;-92
2022/06/06 00:12:23;;;;;;;6.15;3.30;;;15.90;99.90;;;;;;6190329;23;20038;-91
2022/06/06 00:15:15;;;;;;;6.32;3.13;;;16.00;99.90;;;;;;6190630;22;20020;-91
2022/06/06 00:17:41;;;;;;;6.15;3.45;;;15.90;99.90;;;;;;6190651;23;20017;-92
2022/06/06 00:29:19;;;;;;;7.15;4.05;;;16.00;99.90;;;;;;6402659;22;20041;-93
2022/06/06 00:35:07;;;;;;;;;;;;;;;;;;;;;
2022/06/06 00:37:35;;;;;;;7.97;3.85;;;16.00;99.90;;;;;;6215587;23;20067;-92
2022/06/06 00:40:02;;;;;;;6.85;3.60;;;16.00;99.90;;;;;;6189914;23;20012;-92
2022/06/06 00:42:36;;;;;;;6.70;3.53;;;16.00;99.90;;;;;;6190216;23;20020;-93
2022/06/06 00:45:43;;;;;;;6.75;3.33;;;16.00;99.90;;;;;;6188748;23;20023;-90
2022/06/06 00:48:14;;;;;;;7.38;3.75;;;16.10;99.90;;;;;;6189831;23;20099;-93
2022/06/06 00:51:14;;;;;;;6.50;3.40;;;16.10;99.90;;;;;;6189742;23;20020;-95
2022/06/06 00:58:08;;;;;;;6.80;3.40;;;16.10;99.90;;;;;;6230199;23;20019;-93
2022/06/06 03:34:22;;;;;;;5.13;2.35;;;14.70;99.90;;;;;;6242937;22;20020;-92
2022/06/06 04:21:20;;;;;;;4.03;1.85;;;14.70;99.90;;;;;;6387626;22;20022;-92
2022/06/06 04:24:21;;;;;;;3.53;1.77;;;14.60;99.90;;;;;;6353192;22;20168;-91
2022/06/06 04:27:32;;;;;;;;;;;;;;;;;;;;;
2022/06/06 05:20:38;;;;;;;1.50;0.70;;;14.60;99.90;;;;;;6249069;23;20016;-92
2022/06/06 05:23:41;;;;;;;2.38;0.80;;;14.60;99.90;;;;;;6169303;23;20028;-92
2022/06/06 06:18:01;;;;;;;3.92;1.73;;;14.20;99.90;;;;;;6217381;22;20032;-93
2022/06/06 06:43:18;;;;;;;4.78;1.80;;;14.10;99.90;;;;;;6404489;22;20101;-93
2022/06/06 06:45:51;;;;;;;5.45;2.00;;;14.10;99.90;;;;;;6353359;22;20025;-94
2022/06/06 06:48:29;;;;;;;5.55;2.38;;;14.10;99.90;;;;;;6349909;22;20014;-92
2022/06/06 06:55:32;;;;;;;5.88;1.63;;;14.00;99.90;;;;;;6406659;22;20074;-89
2022/06/06 06:58:19;;;;;;;3.55;1.52;;;14.00;99.90;;;;;;6350170;22;20018;-91
2022/06/06 07:01:20;;;;;;;3.65;1.60;;;14.10;99.90;;;;;;6350775;22;20013;-91
2022/06/06 07:10:18;;;;;;;2.85;0.90;;;14.20;99.90;;;;;;6404591;22;20052;-87
2022/06/06 07:13:01;;;;;;;3.08;1.08;;;14.30;99.90;;;;;;6351286;22;20014;-91
2022/06/06 07:15:50;;;;;;;3.05;1.08;;;14.30;99.90;;;;;;6348965;22;20010;-90
2022/06/06 07:18:21;;;;;;;2.33;1.00;;;14.40;99.90;;;;;;6348993;22;20339;-94
2022/06/06 07:20:49;;;;;;;3.42;1.15;;;14.50;99.90;;;;;;6349845;22;20024;-94
2022/06/06 07:23:24;;;;;;;2.85;1.27;;;14.50;99.90;;;;;;6376083;22;20334;-93
2022/06/06 07:25:54;;;;;;;2.97;1.30;;;14.60;99.90;;;;;;6348577;22;20020;-92
2022/06/06 07:28:22;;;;;;;2.95;1.05;;;14.70;99.90;;;;;;6348738;22;20044;-93
2022/06/06 07:31:25;;;;;;;2.28;0.80;;;14.70;99.90;;;;;;6349675;22;20010;-91
2022/06/06 07:34:17;;;;;;;2.47;0.95;;;14.70;99.90;;;;;;6349007;22;20104;-94
2022/06/06 07:37:03;;;;;;;4.28;1.55;;;14.70;99.90;;;;;;6349144;22;20343;-91
2022/06/06 07:39:50;;;;;;;3.08;1.20;;;14.60;99.90;;;;;;6349419;22;20074;-88
2022/06/06 07:42:51;;;;;;;2.88;0.90;;;14.60;99.90;;;;;;6348787;22;20010;-89
2022/06/06 07:45:40;;;;;;;3.05;1.08;;;14.70;99.90;;;;;;6351654;22;20018;-93
2022/06/06 07:48:06;;;;;;;2.00;0.80;;;14.70;99.90;;;;;;6373017;22;20038;-90
2022/06/06 07:50:56;;;;;;;3.80;0.90;;;14.80;99.90;;;;;;6384174;22;20024;-90
2022/06/06 07:53:36;;;;;;;1.75;0.77;;;14.90;99.90;;;;;;6348439;22;20013;-88
2022/06/06 07:58:55;;;;;;;2.50;0.90;;;14.90;99.90;;;;;;6217481;22;20027;-88
2022/06/06 08:01:26;;;;;;;1.67;1.00;;;14.80;99.90;;;;;;6215439;22;20021;-90
2022/06/06 08:04:13;;;;;;;2.63;0.90;;;14.90;99.90;;;;;;6215544;23;20012;-90
2022/06/06 08:07:16;;;;;;;2.17;0.80;;;14.90;99.90;;;;;;6213729;23;20020;-89
2022/06/06 08:10:00;;;;;;;2.63;0.77;;;15.00;99.90;;;;;;6213342;22;20020;-87
2022/06/06 08:12:57;;;;;;;1.98;0.98;;;15.10;99.90;;;;;;6215369;23;20052;-89
2022/06/06 08:15:43;;;;;;;3.08;1.15;;;15.20;99.90;;;;;;6215614;23;20450;-90
2022/06/06 08:18:17;;;;;;;2.53;1.15;;;15.30;99.90;;;;;;6215337;23;20070;-90
2022/06/06 08:20:55;;;;;;;3.47;1.10;;;15.40;99.90;;;;;;6215174;23;20442;-89
2022/06/06 08:23:23;;;;;;;2.80;0.80;;;15.50;99.90;;;;;;6240424;23;20407;-92
2022/06/06 08:25:51;;;;;;;2.42;1.00;;;15.50;99.90;;;;;;6215878;23;20020;-92
2022/06/06 08:28:16;;;;;;;2.28;1.00;;;15.60;99.90;;;;;;6216399;23;20051;-89
2022/06/06 08:30:44;;;;;;;3.05;1.02;;;15.60;99.90;;;;;;6215193;23;20027;-89
2022/06/06 08:33:10;;;;;;;3.33;1.10;;;15.60;99.90;;;;;;6240397;23;20071;-90
2022/06/06 08:35:55;;;;;;;4.40;1.33;;;15.50;99.90;;;;;;6239565;23;20026;-91
2022/06/06 08:38:27;;;;;;;2.42;1.13;;;15.60;99.90;;;;;;6215474;23;20345;-96
2022/06/06 09:06:27;;;;;;;3.88;1.50;;;16.40;99.90;;;;;;6240943;22;20356;-92
2022/06/06 09:09:17;;;;;;;3.15;1.17;;;16.30;99.90;;;;;;6322818;22;20424;-91
2022/06/06 09:11:55;;;;;;;2.97;1.10;;;16.20;99.90;;;;;;6348820;22;20465;-90
2022/06/06 09:14:40;;;;;;;2.72;1.05;;;16.10;99.90;;;;;;6321540;22;20023;-88
2022/06/06 09:17:42;;;;;;;2.75;1.13;;;16.00;99.90;;;;;;6321410;22;20055;-89
2022/06/06 09:20:14;;;;;;;2.70;0.98;;;16.00;99.90;;;;;;6320745;22;20016;-91
2022/06/06 09:23:21;;;;;;;3.67;1.10;;;15.90;99.90;;;;;;6320987;22;20055;-90
2022/06/06 09:26:08;;;;;;;3.55;0.98;;;15.90;99.90;;;;;;6346226;22;20020;-90
2022/06/06 09:29:01;;;;;;;3.70;1.30;;;15.90;99.90;;;;;;6349257;22;20020;-91
2022/06/06 09:31:49;;;;;;;2.60;1.20;;;15.80;99.90;;;;;;6322620;22;20020;-92
2022/06/06 09:34:39;;;;;;;3.67;1.20;;;15.80;99.90;;;;;;6322473;22;20020;-89
2022/06/06 09:37:37;;;;;;;3.33;1.20;;;15.90;99.90;;;;;;6322732;22;20012;-91
2022/06/06 09:40:38;;;;;;;2.85;1.25;;;16.00;99.90;;;;;;6323000;22;20060;-94
2022/06/06 09:43:32;;;;;;;3.17;1.45;;;16.00;99.90;;;;;;6312257;22;20012;-92
2022/06/06 09:46:32;;;;;;;4.15;1.85;;;16.10;99.90;;;;;;6322664;22;20107;-94
2022/06/06 09:49:09;;;;;;;3.53;1.42;;;16.30;99.90;;;;;;6323566;22;20016;-92
2022/06/06 09:52:16;;;;;;;3.03;1.30;;;16.40;99.90;;;;;;6329083;22;20073;-94
2022/06/06 10:00:07;;;;;;;2.05;1.00;;;16.50;99.90;;;;;;6321946;22;20040;-92
2022/06/06 10:03:19;;;;;;;3.47;1.00;;;16.40;99.90;;;;;;6318447;22;20018;-89
2022/06/06 10:06:00;;;;;;;3.90;1.23;;;16.50;99.90;;;;;;6319370;22;20354;-94
2022/06/06 10:09:21;;;;;;;3.55;1.17;;;16.60;99.90;;;;;;6318982;22;20025;-96
2022/06/06 10:20:04;;;;;;;3.03;1.00;;;16.80;99.90;;;;;;6302907;22;20039;-92
2022/06/06 10:22:39;;;;;;;2.83;0.95;;;16.90;99.90;;;;;;6215610;23;20023;-92
2022/06/06 10:40:55;;;;;;;4.40;0.70;;;17.70;99.90;;;;;;6239825;22;20084;-92
2022/06/06 10:44:35;;;;;;;3.00;0.80;;;17.80;99.90;;;;;;6239741;23;20020;-92
2022/06/06 11:15:40;;;;;;;2.03;0.50;;;17.70;99.90;;;;;;6242348;23;20024;-90
2022/06/06 11:18:19;;;;;;;2.28;0.40;;;17.60;99.90;;;;;;6240824;23;20043;-88
2022/06/06 11:21:12;;;;;;;1.42;0.50;;;17.50;99.90;;;;;;6215256;23;20012;-87
2022/06/06 11:23:53;;;;;;;1.17;0.43;;;17.60;99.90;;;;;;6322161;22;20513;-87
2022/06/06 11:26:43;;;;;;;1.48;0.50;;;17.60;99.90;;;;;;6216429;22;20016;-90
2022/06/06 11:29:27;;;;;;;1.08;0.52;;;17.60;99.90;;;;;;6216424;23;20095;-87
2022/06/06 11:32:24;;;;;;;1.83;0.50;;;17.70;99.90;;;;;;6215379;23;20461;-90
2022/06/06 11:35:21;;;;;;;1.38;0.30;;;17.70;99.90;;;;;;6240212;23;20353;-88
2022/06/06 11:38:06;;;;;;;0.93;0.30;;;17.90;99.90;;;;;;6215248;22;20016;-88
2022/06/06 11:40:37;;;;;;;1.48;0.45;;;18.20;99.90;;;;;;6240524;23;20028;-89
2022/06/06 11:43:39;;;;;;;1.35;0.40;;;18.30;99.90;;;;;;6321451;22;20012;-91
2022/06/06 11:46:37;;;;;;;1.30;0.50;;;18.20;99.90;;;;;;6214730;23;20020;-90
2022/06/06 11:49:13;;;;;;;1.40;0.68;;;17.90;99.90;;;;;;6218899;22;20095;-89
2022/06/06 11:52:21;;;;;;;2.17;0.93;;;17.60;99.90;;;;;;6240109;23;20051;-94
2022/06/06 11:55:06;;;;;;;2.97;0.70;;;17.30;99.90;;;;;;6215126;22;20058;-92
2022/06/06 11:58:10;;;;;;;2.00;0.80;;;17.00;99.90;;;;;;6215961;23;20057;-89
2022/06/06 12:01:04;;;;;;;2.13;0.60;;;16.90;99.90;;;;;;6215013;23;20095;-89
2022/06/06 12:03:57;;;;;;;1.30;0.70;;;16.90;99.90;;;;;;6215042;23;20019;-88
2022/06/06 12:06:43;;;;;;;1.63;0.80;;;17.10;99.90;;;;;;6215355;23;20051;-91
2022/06/06 12:09:36;;;;;;;1.50;0.70;;;17.30;99.90;;;;;;6215388;22;20016;-88
2022/06/06 12:12:56;;;;;;;1.10;0.70;;;17.60;99.90;;;;;;6214822;23;20099;-91
2022/06/06 12:15:28;;;;;;;1.98;0.80;;;17.50;99.90;;;;;;6216134;23;20016;-91
2022/06/06 12:18:12;;;;;;;1.27;0.50;;;17.40;99.90;;;;;;6321556;22;20031;-89
2022/06/06 12:21:00;;;;;;;0.93;0.43;;;17.30;99.90;;;;;;6214700;23;20043;-91
2022/06/06 12:24:13;;;;;;;1.35;0.60;;;17.20;99.90;;;;;;6239954;23;20337;-90
2022/06/06 12:27:00;;;;;;;1.42;0.70;;;17.10;99.90;;;;;;6214812;22;20012;-90
2022/06/06 12:30:02;;;;;;;1.70;0.70;;;17.00;99.90;;;;;;6215049;23;20045;-92
2022/06/06 12:32:47;;;;;;;1.48;0.60;;;17.00;99.90;;;;;;6223879;22;20020;-88
2022/06/06 12:35:17;;;;;;;1.42;0.70;;;17.00;99.90;;;;;;6234988;23;20023;-90
2022/06/06 12:38:05;;;;;;;2.45;0.77;;;17.20;99.90;;;;;;6243170;23;20020;-88
2022/06/06 12:41:04;;;;;;;1.70;0.70;;;17.20;99.90;;;;;;6214719;23;20434;-89
2022/06/06 12:43:48;;;;;;;1.75;0.73;;;17.30;99.90;;;;;;6238739;23;20020;-89
2022/06/06 12:46:23;;;;;;;2.50;0.77;;;17.30;99.90;;;;;;6321128;22;20506;-89
2022/06/06 12:49:19;;;;;;;1.95;0.60;;;17.30;99.90;;;;;;6214498;23;20047;-90
2022/06/06 12:52:15;;;;;;;1.63;0.60;;;17.20;99.90;;;;;;6215216;22;20073;-89
2022/06/06 12:57:33;;;;;;;2.30;1.35;;;16.80;99.90;;;;;;6241497;22;20020;-89
2022/06/06 13:00:07;;;;;;;1.67;0.60;;;16.50;99.90;;;;;;6214791;23;20016;-88
2022/06/06 13:02:57;;;;;;;0.88;0.52;;;16.40;99.90;;;;;;6215631;22;20017;-90
2022/06/06 13:05:40;;;;;;;2.28;0.70;;;16.20;99.90;;;;;;6349283;22;20012;-88
2022/06/06 13:08:28;;;;;;;1.73;0.60;;;16.10;99.90;;;;;;6240691;22;20449;-87
2022/06/06 13:11:25;;;;;;;1.35;0.57;;;16.00;99.90;;;;;;6215654;23;20066;-89
2022/06/06 13:14:05;;;;;;;1.60;0.57;;;16.00;99.90;;;;;;6240927;23;20061;-89
2022/06/06 13:16:37;;;;;;;2.45;0.70;;;15.90;99.90;;;;;;6241264;23;20020;-90
2022/06/06 13:19:14;;;;;;;1.20;0.63;;;15.90;99.90;;;;;;6216147;22;20048;-88
2022/06/06 13:21:52;;;;;;;1.20;0.60;;;15.80;99.90;;;;;;6216817;23;20016;-94
2022/06/06 13:24:46;;;;;;;2.97;0.73;;;15.80;99.90;;;;;;6321832;22;20016;-93
2022/06/06 13:27:32;;;;;;;3.30;0.70;;;15.60;99.90;;;;;;6322909;22;20024;-91
2022/06/06 13:30:22;;;;;;;1.00;0.60;;;15.50;99.90;;;;;;6241068;23;20380;-89
2022/06/06 13:33:19;;;;;;;1.98;0.70;;;15.50;99.90;;;;;;6239841;23;20020;-88
2022/06/06 13:36:17;;;;;;;1.30;0.73;;;15.50;99.90;;;;;;6321220;22;20032;-90
2022/06/06 13:39:08;;;;;;;1.85;0.80;;;15.50;99.90;;;;;;6215467;23;20118;-91
2022/06/06 13:44:23;;;;;;;1.98;0.77;;;15.60;99.90;;;;;;6242100;23;20028;-88
2022/06/06 13:47:00;;;;;;;3.72;0.98;;;15.60;99.90;;;;;;6215529;23;20024;-90
2022/06/06 13:49:48;;;;;;;1.70;0.80;;;15.60;99.90;;;;;;6215658;23;20465;-89
2022/06/06 13:52:38;;;;;;;3.00;1.00;;;15.60;99.90;;;;;;6239125;23;20016;-91
2022/06/06 13:55:27;;;;;;;2.70;1.30;;;15.60;99.90;;;;;;6215674;23;20016;-94
2022/06/06 13:58:19;;;;;;;3.72;1.23;;;15.60;99.90;;;;;;6241272;23;20020;-89
2022/06/06 14:01:18;;;;;;;2.88;1.30;;;15.40;99.90;;;;;;6216198;23;20028;-92
2022/06/06 14:03:52;;;;;;;3.42;1.50;;;15.30;99.90;;;;;;6215638;23;20016;-88
2022/06/06 14:06:25;;;;;;;2.90;1.42;;;15.10;99.90;;;;;;6240998;23;20070;-91
2022/06/06 14:08:56;;;;;;;2.72;1.48;;;15.00;99.90;;;;;;6215373;23;20016;-90
2022/06/06 14:12:04;;;;;;;3.40;1.50;;;15.00;99.90;;;;;;6215797;23;20349;-90
2022/06/06 14:14:33;;;;;;;2.83;1.30;;;14.90;99.90;;;;;;6240859;23;20020;-92
2022/06/06 14:17:02;;;;;;;2.63;1.20;;;14.90;99.90;;;;;;6216340;22;20024;-92
2022/06/06 14:19:50;;;;;;;2.33;1.15;;;14.80;99.90;;;;;;6241347;23;20024;-90
2022/06/06 14:22:34;;;;;;;2.95;1.50;;;14.80;99.90;;;;;;6215400;23;20095;-95
2022/06/06 14:25:02;;;;;;;3.05;1.52;;;14.80;99.90;;;;;;6215960;23;20024;-90
2022/06/06 14:27:30;;;;;;;2.42;1.48;;;14.80;99.90;;;;;;6242375;22;20024;-89
2022/06/06 14:30:05;;;;;;;3.20;1.55;;;14.80;99.90;;;;;;6239316;23;20012;-90
2022/06/06 14:32:55;;;;;;;3.33;1.77;;;14.70;99.90;;;;;;6215235;23;20344;-88
2022/06/06 14:35:27;;;;;;;3.28;1.70;;;14.70;99.90;;;;;;6239326;23;20423;-89
2022/06/06 14:38:15;;;;;;;3.65;1.45;;;14.70;99.90;;;;;;6213409;23;20023;-91
2022/06/06 14:40:50;;;;;;;2.30;1.40;;;14.70;99.90;;;;;;6232938;23;20005;-88
2022/06/06 14:43:17;;;;;;;3.03;1.55;;;14.70;99.90;;;;;;6222897;23;20054;-92
2022/06/06 14:45:54;;;;;;;3.08;1.55;;;14.70;99.90;;;;;;6216196;23;20023;-92
2022/06/06 14:48:38;;;;;;;4.50;1.77;;;14.70;99.90;;;;;;6214516;23;20016;-89
2022/06/06 14:51:06;;;;;;;3.42;1.80;;;14.60;99.90;;;;;;6240227;23;20016;-90
2022/06/06 14:54:02;;;;;;;3.35;1.45;;;14.60;99.90;;;;;;6240696;23;20055;-90
2022/06/06 14:56:35;;;;;;;3.38;1.85;;;14.60;99.90;;;;;;6215445;23;20023;-87
2022/06/06 14:59:14;;;;;;;3.10;1.55;;;14.70;99.90;;;;;;6240708;23;20016;-87
2022/06/06 15:01:41;;;;;;;3.08;1.50;;;14.60;99.90;;;;;;6240705;23;20098;-86
2022/06/06 15:04:23;;;;;;;3.60;1.75;;;14.70;99.90;;;;;;6243993;23;20059;-88
2022/06/06 15:06:55;;;;;;;3.35;1.65;;;14.60;99.90;;;;;;6241086;23;20035;-90
2022/06/06 15:09:30;;;;;;;3.88;1.55;;;14.70;99.90;;;;;;6215733;23;20016;-89
2022/06/06 15:11:56;;;;;;;3.58;1.70;;;14.60;99.90;;;;;;6215469;23;20031;-90
2022/06/06 16:01:46;;;;;;;0.20;0.10;;;14.00;99.90;;;;;;6240829;22;20021;-87
2022/06/06 16:04:24;;;;;;;0.55;0.30;;;14.00;99.90;;;;;;6190060;23;20016;-89
2022/06/06 16:07:00;;;;;;;0.22;0.17;;;14.00;99.90;;;;;;6189983;23;20016;-90
2022/06/06 16:09:49;;;;;;;0.97;0.20;;;13.90;99.90;;;;;;6190422;23;20024;-91
2022/06/06 16:12:57;;;;;;;0.40;0.20;;;14.00;99.90;;;;;;6215084;22;20153;-90
2022/06/06 16:15:41;;;;;;;1.10;0.28;;;13.90;99.90;;;;;;6190242;23;20468;-87
2022/06/06 16:18:29;;;;;;;0.95;0.20;;;13.90;99.90;;;;;;6190187;23;20016;-89
2022/06/06 16:21:13;;;;;;;0.90;0.20;;;13.80;99.90;;;;;;6215883;23;20035;-91
2022/06/06 16:24:06;;;;;;;0.20;0.20;;;13.80;99.90;;;;;;6190421;23;20453;-88
2022/06/06 16:26:39;;;;;;;1.35;0.30;;;13.80;99.90;;;;;;6190225;23;20016;-89
2022/06/06 16:29:16;;;;;;;0.15;0.10;;;13.80;99.90;;;;;;6191240;23;20017;-91
2022/06/06 16:37:04;;;;;;;0.38;0.20;;;13.90;99.90;;;;;;6403171;22;20446;-87
2022/06/06 16:39:33;;;;;;;0.38;0.28;;;13.80;99.90;;;;;;6349920;22;20013;-91
2022/06/06 16:47:56;;;;;;;0.60;0.30;;;13.80;99.90;;;;;;6376135;22;20395;-87
2022/06/06 16:50:49;;;;;;;0.70;0.30;;;13.80;99.90;;;;;;6349769;22;20010;-89
2022/06/06 16:53:17;;;;;;;0.85;0.30;;;13.80;99.90;;;;;;6375995;22;20014;-88
2022/06/06 16:55:55;;;;;;;0.70;0.30;;;13.80;99.90;;;;;;6349720;22;20105;-87
2022/06/06 16:58:40;;;;;;;1.15;0.40;;;13.70;99.90;;;;;;6376435;22;20018;-89
2022/06/06 17:01:48;;;;;;;1.00;0.40;;;13.70;99.90;;;;;;6376054;22;20042;-92
2022/06/06 17:04:18;;;;;;;1.60;0.50;;;13.70;99.90;;;;;;6377070;22;20006;-87
2022/06/06 17:09:44;;;;;;;1.75;0.50;;;13.60;99.90;;;;;;6404552;22;20022;-88
2022/06/06 17:12:31;;;;;;;2.50;0.90;;;13.60;99.90;;;;;;6350077;22;20069;-90
2022/06/06 17:15:23;;;;;;;1.33;0.50;;;13.50;99.90;;;;;;6351807;22;20021;-88
2022/06/06 17:17:58;;;;;;;1.50;0.55;;;13.50;99.90;;;;;;6350350;22;20049;-90
2022/06/06 17:20:40;;;;;;;1.77;0.60;;;13.50;99.90;;;;;;6361279;22;20025;-89
2022/06/06 17:23:16;;;;;;;3.00;0.68;;;13.40;99.90;;;;;;6369563;22;20018;-89
2022/06/06 17:28:29;;;;;;;1.52;0.80;;;13.40;99.90;;;;;;6219166;22;20070;-91
2022/06/06 17:31:09;;;;;;;1.67;0.63;;;13.40;99.90;;;;;;6217072;22;20095;-90
2022/06/06 17:33:53;;;;;;;1.65;0.82;;;13.40;99.90;;;;;;6216211;23;20012;-91
2022/06/06 17:36:49;;;;;;;1.80;0.70;;;13.40;99.90;;;;;;6216513;22;20391;-91
2022/06/06 17:40:05;;;;;;;;;;;;;;;;;;;;;
2022/06/06 17:53:32;;;;;;;1.20;0.60;;;13.10;99.90;;;;;;6272287;22;20031;-91
2022/06/06 17:56:05;;;;;;;2.80;0.70;;;13.10;99.90;;;;;;6246132;22;20026;-91
2022/06/06 17:59:09;;;;;;;2.60;0.90;;;13.10;99.90;;;;;;6248652;22;20016;-89
2022/06/06 18:02:13;;;;;;;2.85;0.93;;;13.10;99.90;;;;;;6246431;22;20046;-93
2022/06/06 18:05:10;;;;;;;2.17;1.02;;;13.10;99.90;;;;;;6248314;22;20020;-90
2022/06/06 18:08:13;;;;;;;2.33;1.00;;;13.10;99.90;;;;;;6246293;22;20019;-91
2022/06/06 18:11:14;;;;;;;2.70;1.15;;;13.10;99.90;;;;;;6271913;22;20019;-91
2022/06/06 18:14:06;;;;;;;2.38;0.85;;;13.10;99.90;;;;;;6246139;22;20022;-90
2022/06/06 18:17:17;;;;;;;3.20;1.05;;;13.10;99.90;;;;;;6246215;22;20016;-91
2022/06/06 18:19:44;;;;;;;2.90;1.10;;;13.00;99.90;;;;;;6246091;22;20020;-90
2022/06/06 18:22:24;;;;;;;3.72;1.33;;;13.00;99.90;;;;;;6246499;22;20014;-89
2022/06/06 18:24:52;;;;;;;2.33;1.02;;;13.00;99.90;;;;;;6271921;22;20015;-96
2022/06/06 18:27:41;;;;;;;2.97;1.42;;;12.90;99.90;;;;;;6273168;22;20034;-96
2022/06/06 18:30:18;;;;;;;6.13;2.22;;;12.90;99.90;;;;;;6246900;22;20096;-92
2022/06/06 19:51:30;;;;;;;3.67;1.35;;;12.50;99.90;;;;;;6242228;22;20020;-92
2022/06/06 19:54:06;;;;;;;5.22;2.58;;;12.50;99.90;;;;;;6322171;22;20024;-92
2022/06/06 19:57:02;;;;;;;4.97;1.45;;;12.50;99.90;;;;;;6192500;22;20099;-91
2022/06/06 20:00:00;;;;;;;3.75;1.48;;;12.50;99.90;;;;;;6222325;23;20012;-87
2022/06/06 20:02:57;;;;;;;4.22;1.92;;;12.40;99.90;;;;;;6235381;23;20012;-89
2022/06/06 20:05:29;;;;;;;3.83;1.60;;;12.40;99.90;;;;;;6195140;23;20088;-94
2022/06/06 20:08:26;;;;;;;4.72;1.70;;;12.40;99.90;;;;;;6190773;23;20012;-89
2022/06/06 20:11:14;;;;;;;4.82;1.98;;;12.40;99.90;;;;;;6190077;22;20020;-89
2022/06/06 20:13:48;;;;;;;4.15;1.77;;;12.40;99.90;;;;;;6190857;23;20012;-90
2022/06/06 20:16:30;;;;;;;4.97;2.00;;;12.50;99.90;;;;;;6219536;23;20016;-92
2022/06/06 20:19:00;;;;;;;4.60;2.03;;;12.50;99.90;;;;;;6191478;23;20020;-89
2022/06/06 20:21:36;;;;;;;4.30;1.63;;;12.50;99.90;;;;;;6216816;23;20044;-94
2022/06/06 20:24:18;;;;;;;3.85;2.33;;;12.50;99.90;;;;;;6195343;23;20012;-92
2022/06/06 20:26:47;;;;;;;5.43;1.75;;;12.50;99.90;;;;;;6169256;23;20020;-91
2022/06/06 20:29:28;;;;;;;5.00;1.92;;;12.50;99.90;;;;;;6190374;22;20016;-91
2022/06/06 20:32:10;;;;;;;4.03;1.92;;;12.50;99.90;;;;;;6195845;23;20020;-91
2022/06/06 20:35:08;;;;;;;5.03;1.90;;;12.50;99.90;;;;;;6199810;23;20035;-89
2022/06/06 20:38:04;;;;;;;4.10;1.95;;;12.50;99.90;;;;;;6223740;23;20012;-92
2022/06/06 20:41:07;;;;;;;4.78;1.83;;;12.50;99.90;;;;;;6207263;23;20800;-89
2022/06/06 20:46:11;;;;;;;6.10;2.20;;;12.60;99.90;;;;;;6239066;22;20046;-91
2022/06/06 20:48:43;;;;;;;;;;;12.50;99.90;;;;;;6351898;22;20043;-89
2022/06/06 20:56:30;;;;;;;5.22;1.80;;;12.50;99.90;;;;;;6244846;22;20020;-89
2022/06/06 20:58:58;;;;;;;4.72;2.17;;;12.50;99.90;;;;;;6217739;23;20020;-89
2022/06/06 21:01:32;;;;;;;5.10;2.13;;;12.50;99.90;;;;;;6218403;23;20512;-89
2022/06/06 21:04:02;;;;;;;4.63;2.47;;;12.60;99.90;;;;;;6217757;23;20068;-89
2022/06/06 21:06:29;;;;;;;6.00;2.30;;;12.50;99.90;;;;;;6220225;23;20027;-87
2022/06/06 21:09:03;;;;;;;4.63;2.08;;;12.50;99.90;;;;;;6216990;23;20048;-86
2022/06/06 21:11:33;;;;;;;5.93;2.28;;;12.50;99.90;;;;;;6220247;23;20016;-94
2022/06/06 21:14:00;;;;;;;5.07;1.98;;;12.50;99.90;;;;;;6251819;23;20013;-94
2022/06/06 21:16:30;;;;;;;5.95;2.58;;;12.50;99.90;;;;;;6220762;23;20017;-91
2022/06/06 21:18:59;;;;;;;3.90;1.65;;;12.50;99.90;;;;;;6227765;23;20027;-91
2022/06/06 21:21:50;;;;;;;7.32;2.90;;;12.50;99.90;;;;;;6254389;23;20016;-96
2022/06/06 21:24:18;;;;;;;4.75;1.95;;;12.50;99.90;;;;;;6230405;23;20013;-95
2022/06/06 21:26:45;;;;;;;5.50;2.28;;;12.50;99.90;;;;;;6232313;23;20039;-90
2022/06/06 21:34:21;;;;;;;5.30;2.60;;;12.50;99.90;;;;;;6248166;22;20046;-89
2022/06/06 21:36:51;;;;;;;5.00;1.92;;;12.50;99.90;;;;;;6224397;23;20453;-94
2022/06/06 21:39:27;;;;;;;4.47;1.90;;;12.50;99.90;;;;;;6228286;23;20047;-91
2022/06/06 21:42:04;;;;;;;4.90;2.35;;;12.50;99.90;;;;;;6261310;22;20016;-95
2022/06/06 21:44:31;;;;;;;4.60;2.03;;;12.50;99.90;;;;;;6229433;22;20016;-95
2022/06/06 21:46:57;;;;;;;4.90;2.13;;;12.40;99.90;;;;;;6228718;23;20060;-90
2022/06/06 21:49:26;;;;;;;5.15;2.28;;;12.40;99.90;;;;;;6261037;22;20028;-96
2022/06/06 21:51:52;;;;;;;5.10;1.92;;;12.40;99.90;;;;;;6229640;23;20024;-91
2022/06/06 21:54:23;;;;;;;7.57;2.35;;;12.40;99.90;;;;;;6229800;23;20019;-96
2022/06/06 21:56:54;;;;;;;5.10;1.63;;;12.40;99.90;;;;;;6231586;22;20067;-96
2022/06/06 21:59:24;;;;;;;5.30;2.20;;;12.40;99.90;;;;;;6384333;22;20347;-94
2022/06/06 22:02:05;;;;;;;5.78;2.03;;;12.40;99.90;;;;;;6386484;22;20021;-94
2022/06/06 22:07:07;;;;;;;6.53;2.38;;;12.40;99.90;;;;;;6268863;22;20063;-93
2022/06/06 22:09:36;;;;;;;5.30;2.30;;;12.40;99.90;;;;;;6240807;22;20100;-96
2022/06/06 22:12:12;;;;;;;5.70;2.30;;;12.40;99.90;;;;;;6236748;22;20071;-93
2022/06/06 22:14:41;;;;;;;4.88;2.13;;;12.40;99.90;;;;;;6263444;22;20008;-92
2022/06/06 22:17:08;;;;;;;6.88;2.55;;;12.40;99.90;;;;;;6264417;22;20020;-94
2022/06/06 22:19:33;;;;;;;4.80;2.00;;;12.40;99.90;;;;;;6238591;23;20087;-92
2022/06/06 22:21:59;;;;;;;4.87;2.07;;;12.40;99.90;;;;;;6231281;23;20261;-93
2022/06/06 22:24:26;;;;;;;5.10;1.98;;;12.40;99.90;;;;;;6258667;23;20047;-93
2022/06/06 22:26:53;;;;;;;4.03;1.83;;;12.40;99.90;;;;;;6240061;23;20067;-91
2022/06/06 22:29:40;;;;;;;5.63;2.22;;;12.40;99.90;;;;;;6258921;23;20065;-94
2022/06/06 22:32:06;;;;;;;4.60;2.10;;;12.40;99.90;;;;;;6217286;22;20026;-92
2022/06/06 22:34:31;;;;;;;5.45;1.98;;;12.40;99.90;;;;;;6328987;22;20020;-92
2022/06/06 22:36:57;;;;;;;5.23;1.97;;;12.40;99.90;;;;;;6325909;22;20014;-93
2022/06/06 22:39:24;;;;;;;4.90;2.00;;;12.40;99.90;;;;;;6333394;22;20020;-90
2022/06/06 22:41:50;;;;;;;;;;;12.40;99.90;;;;;;6333571;22;20012;-90
2022/06/06 22:44:15;;;;;;;5.45;1.83;;;12.40;99.90;;;;;;6327480;22;20225;-93
2022/06/06 22:46:45;;;;;;;4.77;2.20;;;12.40;99.90;;;;;;6357487;22;20021;-94
2022/06/06 22:49:12;;;;;;;4.22;2.08;;;12.40;99.90;;;;;;6341021;22;20016;-90
2022/06/06 22:51:45;;;;;;;4.53;2.03;;;12.40;99.90;;;;;;6364132;22;20021;-94
2022/06/06 22:54:12;;;;;;;5.28;1.85;;;12.40;99.90;;;;;;6365015;22;20050;-92
2022/06/06 22:56:38;;;;;;;6.22;2.03;;;12.40;99.90;;;;;;6344948;22;20020;-89
2022/06/06 22:59:04;;;;;;;3.78;1.52;;;12.40;99.90;;;;;;6361218;22;20020;-92
2022/06/06 23:09:16;;;;;;;5.05;1.88;;;12.50;99.90;;;;;;6241811;22;20460;-91
2022/06/06 23:11:42;;;;;;;5.00;2.00;;;12.50;99.90;;;;;;6215972;22;20041;-90
2022/06/06 23:14:10;;;;;;;7.27;2.57;;;12.50;99.90;;;;;;6215851;22;20052;-94
2022/06/06 23:16:38;;;;;;;5.68;2.30;;;12.50;99.90;;;;;;6215598;22;20023;-90
2022/06/06 23:19:05;;;;;;;5.00;2.28;;;12.50;99.90;;;;;;6214110;22;20008;-92
2022/06/06 23:21:53;;;;;;;3.95;1.75;;;12.50;99.90;;;;;;6215761;23;20016;-90
2022/06/06 23:24:19;;;;;;;5.57;2.35;;;12.50;99.90;;;;;;6215122;22;20026;-94
2022/06/06 23:26:48;;;;;;;7.13;2.55;;;12.50;99.90;;;;;;6240712;23;20051;-90
2022/06/06 23:29:14;;;;;;;4.57;1.75;;;12.50;99.90;;;;;;6240719;23;20008;-93
2022/06/06 23:31:42;;;;;;;4.82;2.15;;;12.50;99.90;;;;;;6215602;23;20107;-90
2022/06/06 23:34:14;;;;;;;5.78;1.83;;;12.50;99.90;;;;;;6240538;23;20103;-93
2022/06/06 23:36:53;;;;;;;3.95;2.20;;;12.50;99.90;;;;;;6215337;22;20322;-92
2022/06/06 23:39:25;;;;;;;4.80;1.88;;;12.50;99.90;;;;;;6240817;23;20437;-91
2022/06/06 23:41:51;;;;;;;5.05;1.90;;;12.50;99.90;;;;;;6215260;22;20097;-90
2022/06/06 23:50:01;;;;;;;5.67;2.43;;;12.60;99.90;;;;;;6241179;23;20027;-89
2022/06/06 23:52:28;;;;;;;5.35;2.53;;;12.50;99.90;;;;;;6215497;22;20334;-92
2022/06/06 23:54:54;;;;;;;;;;;12.50;99.90;;;;;;6215944;22;20016;-92
2022/06/06 23:57:20;;;;;;;4.63;2.00;;;12.60;99.90;;;;;;6215454;22;20373;-90
2022/06/06 23:59:48;;;;;;;4.57;2.20;;;12.50;99.90;;;;;;6215660;22;20027;-91
